createdAt,value
2019-02-06T00:02:18.823Z,98409.86
2019-02-06T00:07:36.525Z,98409.16
2019-02-06T00:12:53.722Z,98415.47
2019-02-06T00:18:10.913Z,98416.70
2019-02-06T00:23:28.502Z,98415.13
2019-02-06T00:28:46.839Z,98415.70
2019-02-06T00:34:04.280Z,98408.63
2019-02-06T00:39:22.313Z,98410.13
2019-02-06T00:44:40.638Z,98411.41
2019-02-06T00:49:58.158Z,98400.37
2019-02-06T00:55:15.610Z,98397.75
2019-02-06T01:00:33.332Z,98398.67
2019-02-06T01:05:52.638Z,98396.31
2019-02-06T01:11:10.909Z,98396.89
2019-02-06T01:16:28.130Z,98396.12
2019-02-06T01:21:45.978Z,98393.99
2019-02-06T01:27:03.823Z,98392.75
2019-02-06T01:32:21.705Z,98396.42
2019-02-06T01:37:39.299Z,98399.05
2019-02-06T01:42:57.231Z,98395.80
2019-02-06T01:48:14.962Z,98400.09
2019-02-06T01:53:32.971Z,98397.80
2019-02-06T01:58:52.559Z,98389.58
2019-02-06T02:04:09.992Z,98385.67
2019-02-06T02:09:28.212Z,98381.20
2019-02-06T02:14:45.905Z,98381.90
2019-02-06T02:20:03.619Z,98375.88
2019-02-06T02:25:21.389Z,98374.70
2019-02-06T02:30:45.669Z,98371.83
2019-02-06T02:36:15.108Z,98378.17
2019-02-06T02:41:21.338Z,98379.61
2019-02-06T02:46:38.612Z,98381.84
2019-02-06T02:51:56.410Z,98379.38
2019-02-06T02:57:14.138Z,98385.33
2019-02-06T03:03:00.243Z,98377.36
2019-02-06T03:08:18.133Z,98380.69
2019-02-06T03:13:35.745Z,98379.09
2019-02-06T03:18:52.893Z,98386.01
2019-02-06T03:24:11.533Z,98382.55
2019-02-06T03:29:29.084Z,98383.82
2019-02-06T03:34:47.088Z,98392.38
2019-02-06T03:40:05.463Z,98389.05
2019-02-06T03:45:23.575Z,98381.12
2019-02-06T03:50:40.751Z,98385.86
2019-02-06T03:55:57.993Z,98383.89
2019-02-06T04:01:16.647Z,98393.74
2019-02-06T04:06:34.535Z,98394.11
2019-02-06T04:11:51.820Z,98388.20
2019-02-06T04:17:09.685Z,98389.47
2019-02-06T04:22:27.075Z,98393.83
2019-02-06T04:27:45.132Z,98398.55
2019-02-06T04:33:04.038Z,98411.23
2019-02-06T04:38:21.768Z,98410.88
2019-02-06T04:43:39.337Z,98419.93
2019-02-06T04:48:57.002Z,98414.47
2019-02-06T04:54:15.234Z,98411.06
2019-02-06T04:59:33.012Z,98412.73
2019-02-06T05:04:51.214Z,98422.91
2019-02-06T05:10:10.129Z,98423.17
2019-02-06T05:15:27.587Z,98427.46
2019-02-06T05:20:44.914Z,98416.16
2019-02-06T05:26:03.146Z,98416.42
2019-02-06T05:31:21.200Z,98418.52
2019-02-06T05:36:39.627Z,98414.63
2019-02-06T05:41:59.393Z,98414.55
2019-02-06T05:47:17.335Z,98419.16
2019-02-06T05:52:35.152Z,98427.59
2019-02-06T05:57:52.826Z,98428.47
2019-02-06T06:03:10.089Z,98425.92
2019-02-06T06:08:28.091Z,98424.77
2019-02-06T06:13:45.837Z,98434.97
2019-02-06T06:19:03.861Z,98440.60
2019-02-06T06:24:21.123Z,98444.84
2019-02-06T06:29:38.517Z,98449.01
2019-02-06T06:34:56.687Z,98462.54
2019-02-06T06:40:16.449Z,98473.66
2019-02-06T06:45:33.753Z,98485.41
2019-02-06T06:50:51.151Z,98497.61
2019-02-06T06:56:08.675Z,98492.97
2019-02-06T07:01:27.318Z,98489.40
2019-02-06T07:06:46.468Z,98501.86
2019-02-06T07:12:02.080Z,98500.19
2019-02-06T07:17:19.997Z,98499.15
2019-02-06T07:22:38.010Z,98503.42
2019-02-06T07:27:55.853Z,98509.28
2019-02-06T07:33:14.226Z,98511.70
2019-02-06T07:38:31.833Z,98515.67
2019-02-06T07:43:49.214Z,98517.89
2019-02-06T07:49:06.505Z,98527.08
2019-02-06T07:54:23.745Z,98524.89
2019-02-06T07:59:41.351Z,98515.31
2019-02-06T08:04:59.710Z,98522.77
2019-02-06T08:10:21.152Z,98524.65
2019-02-06T08:15:38.447Z,98519.83
2019-02-06T08:20:55.931Z,98521.23
2019-02-06T08:26:13.721Z,98520.77
2019-02-06T08:31:31.708Z,98513.15
2019-02-06T08:36:49.865Z,98514.48
2019-02-06T08:42:10.420Z,98512.83
2019-02-06T08:47:28.524Z,98502.56
2019-02-06T08:52:46.427Z,98502.34
2019-02-06T08:58:05.300Z,98498.77
2019-02-06T09:03:23.536Z,98489.39
2019-02-06T09:08:40.891Z,98488.92
2019-02-06T09:13:58.767Z,98477.33
2019-02-06T09:19:15.982Z,98481.44
2019-02-06T09:24:33.492Z,98472.00
2019-02-06T09:29:50.877Z,98471.73
2019-02-06T09:35:08.711Z,98472.12
2019-02-06T09:40:27.227Z,98470.94
2019-02-06T09:45:49.274Z,98456.66
2019-02-06T09:51:07.159Z,98456.51
2019-02-06T09:56:24.350Z,98465.15
2019-02-06T10:01:42.293Z,98460.94
2019-02-06T10:07:00.389Z,98460.42
2019-02-06T10:12:18.083Z,98458.84
2019-02-06T10:17:36.262Z,98461.52
2019-02-06T10:22:53.398Z,98462.14
2019-02-06T10:28:10.963Z,98453.53
2019-02-06T10:33:28.321Z,98440.91
2019-02-06T10:38:46.199Z,98425.53
2019-02-06T10:44:03.893Z,98427.78
2019-02-06T10:49:21.572Z,98417.98
2019-02-06T10:54:39.303Z,98403.38
2019-02-06T10:59:57.441Z,98390.29
2019-02-06T11:05:15.157Z,98386.60
2019-02-06T11:10:33.425Z,98383.81
2019-02-06T11:15:51.378Z,98371.79
2019-02-06T11:21:09.105Z,98378.30
2019-02-06T11:26:26.735Z,98366.58
2019-02-06T11:31:44.145Z,98365.03
2019-02-06T11:37:02.042Z,98359.78
2019-02-06T11:42:19.980Z,98342.97
2019-02-06T11:47:37.546Z,98334.66
2019-02-06T11:52:55.093Z,98339.53
2019-02-06T11:58:14.271Z,98331.80
2019-02-06T12:03:32.038Z,98323.87
2019-02-06T12:08:49.562Z,98314.48
2019-02-06T12:14:10.266Z,98307.10
2019-02-06T12:19:29.345Z,98296.74
2019-02-06T12:24:47.074Z,98297.93
2019-02-06T12:30:05.484Z,98282.62
2019-02-06T12:35:23.370Z,98280.52
2019-02-06T12:40:42.204Z,98267.94
2019-02-06T12:45:59.820Z,98264.73
2019-02-06T12:51:17.995Z,98263.59
2019-02-06T12:56:35.299Z,98249.73
2019-02-06T13:01:52.701Z,98235.64
2019-02-06T13:07:12.583Z,98235.81
2019-02-06T13:12:29.968Z,98231.23
2019-02-06T13:17:48.469Z,98231.15
2019-02-06T13:23:07.487Z,98225.63
2019-02-06T13:28:25.155Z,98224.88
2019-02-06T13:33:43.215Z,98214.32
2019-02-06T13:39:01.774Z,98207.52
2019-02-06T13:44:18.989Z,98206.45
2019-02-06T13:49:36.539Z,98202.76
2019-02-06T13:54:54.529Z,98195.83
2019-02-06T14:00:13.615Z,98185.96
2019-02-06T14:05:31.790Z,98178.37
2019-02-06T14:10:58.581Z,98174.00
2019-02-06T14:16:07.262Z,98172.63
2019-02-06T14:21:25.917Z,98167.00
2019-02-06T14:27:02.220Z,98152.66
2019-02-06T14:32:42.703Z,98140.13
2019-02-06T14:38:18.183Z,98140.25
2019-02-06T14:43:55.578Z,98128.89
2019-02-06T14:49:41.335Z,98130.43
2019-02-06T14:55:27.379Z,98117.46
2019-02-06T15:00:59.536Z,98120.32
2019-02-06T15:06:25.666Z,98110.34
2019-02-06T15:12:14.911Z,98105.80
2019-02-06T15:17:52.149Z,98113.00
2019-02-06T15:23:32.886Z,98111.17
2019-02-06T15:28:54.062Z,98107.53
2019-02-06T15:34:20.082Z,98109.67
2019-02-06T15:39:55.656Z,98099.56
2019-02-06T15:45:25.947Z,98097.95
2019-02-06T15:51:03.603Z,98089.50
2019-02-06T15:56:33.815Z,98093.02
2019-02-06T16:02:09.399Z,98086.01
2019-02-06T16:07:46.080Z,98082.30
2019-02-06T16:13:24.251Z,98082.83
2019-02-06T16:18:48.805Z,98072.08
2019-02-06T16:24:28.508Z,98042.67
2019-02-06T16:30:04.585Z,98026.77
2019-02-06T16:35:41.112Z,98030.70
2019-02-06T16:41:24.550Z,98018.67
2019-02-06T16:47:00.623Z,98014.59
2019-02-06T16:52:44.722Z,98006.52
2019-02-06T16:58:24.706Z,98092.24
2019-02-06T17:04:00.421Z,98089.44
2019-02-06T17:09:35.954Z,98091.43
2019-02-06T17:15:21.774Z,98092.38
2019-02-06T17:20:58.799Z,98090.73
2019-02-06T17:26:39.312Z,98090.08
2019-02-06T17:32:11.200Z,98088.23
2019-02-06T17:37:47.564Z,98092.78
2019-02-06T17:43:27.860Z,98085.45
2019-02-06T17:49:01.267Z,98093.65
2019-02-06T17:54:25.513Z,98090.69
2019-02-06T17:59:44.102Z,98089.42
2019-02-06T18:05:02.192Z,98086.14
2019-02-06T18:10:20.800Z,98084.20
2019-02-06T18:15:38.699Z,98078.01
2019-02-06T18:20:57.335Z,98079.33
2019-02-06T18:26:15.681Z,98083.06
2019-02-06T18:31:33.196Z,98083.38
2019-02-06T18:36:51.545Z,98074.70
2019-02-06T18:42:09.631Z,98077.88
2019-02-06T18:47:27.325Z,98086.02
2019-02-06T18:52:45.687Z,98069.91
2019-02-06T18:58:03.759Z,98060.27
2019-02-06T19:03:22.736Z,98070.57
2019-02-06T19:08:40.567Z,98061.09
2019-02-06T19:13:58.553Z,98046.73
2019-02-06T19:19:25.127Z,98045.59
2019-02-06T19:24:34.958Z,98051.90
2019-02-06T19:29:53.445Z,98036.32
2019-02-06T19:35:11.335Z,98032.31
2019-02-06T19:40:29.187Z,98027.66
2019-02-06T19:45:47.187Z,98022.27
2019-02-06T19:51:05.622Z,98019.32
2019-02-06T19:56:25.035Z,98017.31
2019-02-06T20:01:42.580Z,98010.84
2019-02-06T20:07:01.115Z,98011.03
2019-02-06T20:12:19.102Z,98011.19
2019-02-06T20:17:38.195Z,98006.17
2019-02-06T20:23:00.106Z,98002.67
2019-02-06T20:28:17.906Z,97991.96
2019-02-06T20:33:36.075Z,97998.25
2019-02-06T20:38:53.603Z,97990.83
2019-02-06T20:44:12.357Z,97973.58
2019-02-06T20:49:30.624Z,97971.49
2019-02-06T20:54:49.492Z,97966.59
2019-02-06T21:00:08.616Z,97953.76
2019-02-06T21:05:26.031Z,97944.70
2019-02-06T21:10:44.567Z,97936.98
2019-02-06T21:16:03.499Z,97934.47
2019-02-06T21:21:21.377Z,97930.47
2019-02-06T21:26:39.371Z,97925.80
2019-02-06T21:31:57.818Z,97922.39
2019-02-06T21:37:15.562Z,97918.50
2019-02-06T21:42:35.705Z,97910.88
2019-02-06T21:47:51.128Z,97894.05
2019-02-06T21:53:08.754Z,97890.52
2019-02-06T21:58:26.922Z,97890.23
2019-02-06T22:03:44.648Z,97880.50
2019-02-06T22:09:03.807Z,97876.96
2019-02-06T22:14:21.226Z,97873.75
2019-02-06T22:19:38.529Z,97870.95
2019-02-06T22:24:55.873Z,97864.83
2019-02-06T22:30:19.615Z,97857.66
2019-02-06T22:35:36.847Z,97856.36
2019-02-06T22:40:54.662Z,97855.86
2019-02-06T22:46:12.351Z,97851.33
2019-02-06T22:51:30.700Z,97845.93
2019-02-06T22:56:48.871Z,97837.75
2019-02-06T23:02:06.769Z,97827.02
2019-02-06T23:07:25.805Z,97827.27
2019-02-06T23:12:43.267Z,97819.42
2019-02-06T23:18:00.819Z,97810.33
2019-02-06T23:23:19.475Z,97801.73
2019-02-06T23:28:36.691Z,97796.36
2019-02-06T23:33:54.264Z,97788.16
2019-02-06T23:39:15.745Z,97787.14
2019-02-06T23:44:33.754Z,97780.30
2019-02-06T23:49:51.808Z,97771.42
2019-02-06T23:55:09.705Z,97762.70
